Aviation Digital Data Service (ADDS)

Output produced by METARs form (1404 UTC 08 May 2021)
found at http://aviationweather.gov/metar/data/
 
KLBX 081353Z AUTO 16010KT 10SM FEW020 BKN025 25/22 A3002 RMK AO2 SLP167 T02500217
KLBX 081203Z 0812/0912 17008KT P6SM SCT025 
     TEMPO 0812/0814 BKN025 
     FM081500 17014G24KT P6SM SCT030 
     FM081800 17018G28KT P6SM SCT035 
     FM090000 16013G23KT P6SM SCT025 
     FM090300 16013G23KT P6SM BKN025